»·PEaware :: N698J KALW-8W5

N698J :: KALW-8W5

FLIGHT INFORMATION

Flight Status: Arrived
Operator: Privately registered:
United States
More flights under this callsign
Pilot: Ahmad S. (5672)
Aircraft: BEECH AIRCRAFT BARON
(BE58)
More flights by this aircraft type
Origin: KALW Walla Walla Regl
United States
Destination: 8W5 Apex Airpark
United States
More flights between these airports :: More routes between these airports
Route: +ALW V520 PSC V204 YKM V4 SEA WUMOX
File this flight plan on PilotEdge
Remarks:
Altitude:
(Current/Filed)
10,000ft
Speed:
(Current/Filed)
150kts
Departed: 15-May-20 12:10 PM
Arrived: 15-May-20 01:29 PM
Distance/Time
Traveled:
205nm/1:19
Distance/Time
To Go:
Arrived

Flight Plot

Page will automatically refresh every two minutes.

Flight plan parsing failed; only flown route is shown


Map Options




Map Legend


Flown Route
Filed Route
Departure Airport
Arrival Airport
Navaid (VOR, NDB)
Fix

Horizontal Profiles

Position Reports

Time Latitude Longitude Heading Altitude Ground
Speed
15-May-20 11:57 46.089762 -118.283694 125 1194ft 0kts
15-May-20 11:58 46.089762 -118.283694 125 1194ft 0kts
15-May-20 11:59 46.089762 -118.283694 125 1194ft 0kts
15-May-20 12:00 46.089762 -118.283694 125 1194ft 0kts
15-May-20 12:00 46.089762 -118.283694 125 1194ft 0kts
15-May-20 12:02 46.089762 -118.283694 125 1194ft 0kts
15-May-20 12:03 46.089762 -118.283694 125 1194ft 0kts
15-May-20 12:04 46.089776 -118.283583 42 1194ft 3kts
15-May-20 12:04 46.093109 -118.281073 35 1194ft 36kts
15-May-20 12:06 46.098478 -118.276189 0 1194ft 1kts
15-May-20 12:07 46.098522 -118.276188 0 1194ft 0kts
15-May-20 12:07 46.098524 -118.276187 0 1194ft 0kts
15-May-20 12:08 46.099252 -118.277135 215 1194ft 0kts
15-May-20 12:09 46.087260 -118.289408 215 1363ft 118kts
15-May-20 12:10 46.055902 -118.323757 204 2210ft 155kts
15-May-20 12:11 46.028109 -118.372530 284 3044ft 176kts
15-May-20 12:12 46.062823 -118.367534 79 3848ft 172kts
15-May-20 12:13 46.091546 -118.325194 335 4640ft 178kts
15-May-20 12:14 46.110378 -118.390175 281 5355ft 178kts
15-May-20 12:15 46.123002 -118.456815 284 5977ft 170kts
15-May-20 12:16 46.136899 -118.522420 285 6476ft 170kts
15-May-20 12:17 46.150825 -118.587230 285 6971ft 168kts
15-May-20 12:18 46.164667 -118.651730 285 7482ft 167kts
15-May-20 12:19 46.179158 -118.719421 285 7977ft 175kts
15-May-20 12:20 46.192993 -118.784252 285 8451ft 165kts
15-May-20 12:21 46.206297 -118.846831 285 8941ft 160kts
15-May-20 12:22 46.219224 -118.907819 285 9432ft 157kts
15-May-20 12:23 46.231974 -118.968142 286 9921ft 156kts
15-May-20 12:24 46.245310 -119.031422 286 9984ft 172kts
15-May-20 12:25 46.259534 -119.099067 286 9980ft 177kts
15-May-20 12:26 46.275206 -119.166709 288 9979ft 178kts
15-May-20 12:27 46.291275 -119.234535 288 9958ft 178kts
15-May-20 12:28 46.307390 -119.302645 287 9950ft 178kts
15-May-20 12:29 46.323441 -119.370681 287 9943ft 183kts
15-May-20 12:30 46.339618 -119.439442 287 9949ft 178kts
15-May-20 12:31 46.355494 -119.507160 287 9949ft 177kts
15-May-20 12:32 46.371366 -119.575069 287 9950ft 177kts
15-May-20 12:33 46.387136 -119.642748 287 9950ft 177kts
15-May-20 12:34 46.403464 -119.713053 287 9956ft 186kts
15-May-20 12:35 46.420055 -119.784685 287 9962ft 184kts
15-May-20 12:36 46.436689 -119.856768 287 9960ft 185kts
15-May-20 12:37 46.453200 -119.928554 287 9945ft 183kts
15-May-20 12:38 46.469026 -119.997585 287 9952ft 178kts
15-May-20 12:39 46.484698 -120.066214 287 9950ft 180kts
15-May-20 12:40 46.500712 -120.136519 287 9931ft 192kts
15-May-20 12:41 46.516987 -120.208196 287 9949ft 183kts
15-May-20 12:42 46.532822 -120.278188 287 9949ft 182kts
15-May-20 12:43 46.548551 -120.347945 287 9949ft 181kts
15-May-20 12:44 46.564265 -120.417880 287 9949ft 181kts
15-May-20 12:45 46.588636 -120.481834 303 9949ft 181kts
15-May-20 12:46 46.617274 -120.542596 304 9949ft 181kts
15-May-20 12:47 46.646019 -120.602934 304 9949ft 181kts
15-May-20 12:48 46.674851 -120.663474 304 9948ft 181kts
15-May-20 12:49 46.703569 -120.723886 304 9948ft 181kts
15-May-20 12:50 46.732285 -120.784427 304 9947ft 181kts
15-May-20 12:51 46.760875 -120.844832 304 9946ft 181kts
15-May-20 12:52 46.789500 -120.905441 304 9946ft 181kts
15-May-20 12:53 46.818010 -120.965938 304 9946ft 181kts
15-May-20 12:54 46.846478 -121.026479 304 9947ft 181kts
15-May-20 12:55 46.874987 -121.087229 303 9949ft 181kts
15-May-20 12:56 46.903487 -121.148118 303 9951ft 181kts
15-May-20 12:57 46.932022 -121.209193 303 9952ft 181kts
15-May-20 12:58 46.960509 -121.270315 303 9958ft 182kts
15-May-20 12:59 46.989005 -121.331582 303 9963ft 181kts
15-May-20 13:00 47.017366 -121.392640 303 9951ft 182kts
15-May-20 13:01 47.045740 -121.453950 303 9974ft 181kts
15-May-20 13:02 47.073989 -121.515104 303 9975ft 181kts
15-May-20 13:03 47.102188 -121.576282 303 9982ft 181kts
15-May-20 13:04 47.130398 -121.637618 303 9991ft 181kts
15-May-20 13:05 47.158541 -121.698939 303 9996ft 181kts
15-May-20 13:06 47.186733 -121.760503 303 10000ft 181kts
15-May-20 13:07 47.214811 -121.821956 303 10003ft 181kts
15-May-20 13:08 47.242897 -121.883562 303 10006ft 181kts
15-May-20 13:09 47.271047 -121.945449 303 10008ft 181kts
15-May-20 13:10 47.299092 -122.007237 302 10010ft 181kts
15-May-20 13:11 47.327225 -122.069369 302 10012ft 182kts
15-May-20 13:12 47.355404 -122.131603 303 10000ft 182kts
15-May-20 13:13 47.383921 -122.193752 303 10000ft 182kts
15-May-20 13:14 47.412405 -122.255828 303 10009ft 185kts
15-May-20 13:15 47.438079 -122.316636 297 9962ft 158kts
15-May-20 13:16 47.461959 -122.380129 298 8979ft 181kts
15-May-20 13:17 47.486498 -122.444393 298 7980ft 174kts
15-May-20 13:18 47.508835 -122.502272 298 6954ft 155kts
15-May-20 13:19 47.530269 -122.556852 298 6074ft 147kts
15-May-20 13:20 47.548892 -122.603621 298 5992ft 118kts
15-May-20 13:21 47.574075 -122.631226 314 5729ft 127kts
15-May-20 13:22 47.601356 -122.673535 318 4831ft 151kts
15-May-20 13:23 47.595806 -122.718801 253 3819ft 135kts
15-May-20 13:24 47.620495 -122.723101 74 2845ft 139kts
15-May-20 13:25 47.643505 -122.711151 315 1894ft 123kts
15-May-20 13:26 47.676182 -122.708253 356 1262ft 116kts
15-May-20 13:27 47.670886 -122.729638 189 751ft 91kts
15-May-20 13:28 47.654508 -122.733788 177 528ft 4kts
15-May-20 13:29 47.654325 -122.733311 3 528ft 0kts
15-May-20 13:30 47.654325 -122.733311 3 528ft 0kts
15-May-20 13:31 47.654325 -122.733311 3 528ft 0kts
15-May-20 13:32 47.654325 -122.733311 3 528ft 0kts
15-May-20 13:33 47.654325 -122.733311 3 528ft 0kts
15-May-20 13:34 47.654325 -122.733311 3 528ft 0kts
15-May-20 13:35 47.654325 -122.733311 3 528ft 0kts
15-May-20 13:36 47.654325 -122.733311 3 528ft 0kts
15-May-20 13:37 47.654325 -122.733311 3 528ft 0kts
15-May-20 13:38 47.654325 -122.733311 3 528ft 0kts
15-May-20 13:40 47.654325 -122.733311 3 528ft 0kts
15-May-20 13:41 47.654325 -122.733311 3 528ft 0kts
15-May-20 13:42 47.654325 -122.733311 3 528ft 0kts
15-May-20 13:43 47.654325 -122.733311 3 528ft 0kts
15-May-20 13:44 47.654325 -122.733311 3 528ft 0kts

Navigation Log

Ident Type
Flight plan parsing failed, navigation log unavailable